Iota, Louisiana
Current Conditions -  °F | °C
As of 4:35 PM on Sunday 23 Nov 2014 (Local Time) from K3R7 Reporting Station
Clear Clear  
Wind Chill: 70°   Ceiling: Unl
Heat Index: 70°   Visibility: 10mi
Dew Point: 63°   Wind: 8mph
Humidity: 79%   Direction: 220°SW
Pressure: 29.58"   Gusts: 23mph
Location:  30.33°N, 92.5°W
Report Text: K3R7 232235Z AUTO 22007G20KT 10SM CLR 21/17 A2958 RMK AO2 T02120174
Loading
Personal Weather Stations






























Interactive Weather Map New forecast layout! Learn more

10-Day Weather Forecast

Advertisements
Track Severe Weather on mobile